sensor_id;sensor_type;location;lat;lon;timestamp;P1;durP1;ratioP1;P2;durP2;ratioP2
60372;SDS011;46216;52.220;5.134;2022-08-11T00:01:36;5.38;;;3.05;;
60372;SDS011;46216;52.220;5.134;2022-08-11T00:04:07;6.22;;;3.50;;
60372;SDS011;46216;52.220;5.134;2022-08-11T00:06:34;5.82;;;3.03;;
60372;SDS011;46216;52.220;5.134;2022-08-11T00:09:03;7.43;;;3.63;;
60372;SDS011;46216;52.220;5.134;2022-08-11T00:11:38;6.28;;;3.40;;
60372;SDS011;46216;52.220;5.134;2022-08-11T00:14:14;4.68;;;3.42;;
60372;SDS011;46216;52.220;5.134;2022-08-11T00:16:43;5.93;;;3.53;;
60372;SDS011;46216;52.220;5.134;2022-08-11T00:19:22;5.70;;;3.50;;
60372;SDS011;46216;52.220;5.134;2022-08-11T00:21:58;5.47;;;3.40;;
60372;SDS011;46216;52.220;5.134;2022-08-11T00:24:24;3.72;;;3.22;;
60372;SDS011;46216;52.220;5.134;2022-08-11T00:26:57;6.00;;;3.58;;
60372;SDS011;46216;52.220;5.134;2022-08-11T00:29:22;5.28;;;3.58;;
60372;SDS011;46216;52.220;5.134;2022-08-11T00:31:52;4.40;;;3.53;;
60372;SDS011;46216;52.220;5.134;2022-08-11T00:34:24;5.30;;;3.60;;
60372;SDS011;46216;52.220;5.134;2022-08-11T00:36:52;3.67;;;3.30;;
60372;SDS011;46216;52.220;5.134;2022-08-11T00:39:21;6.13;;;3.63;;
60372;SDS011;46216;52.220;5.134;2022-08-11T00:44:48;5.15;;;3.50;;
60372;SDS011;46216;52.220;5.134;2022-08-11T00:53:11;3.63;;;3.33;;
60372;SDS011;46216;52.220;5.134;2022-08-11T01:02:08;7.75;;;4.03;;
60372;SDS011;46216;52.220;5.134;2022-08-11T01:07:52;5.18;;;3.65;;
60372;SDS011;46216;52.220;5.134;2022-08-11T01:35:14;8.98;;;3.70;;
60372;SDS011;46216;52.220;5.134;2022-08-11T01:40:50;5.45;;;3.85;;
60372;SDS011;46216;52.220;5.134;2022-08-11T01:46:29;3.95;;;3.47;;
60372;SDS011;46216;52.220;5.134;2022-08-11T01:54:43;6.18;;;3.70;;
60372;SDS011;46216;52.220;5.134;2022-08-11T02:08:20;4.38;;;3.50;;
60372;SDS011;46216;52.220;5.134;2022-08-11T02:25:08;4.68;;;4.20;;
60372;SDS011;46216;52.220;5.134;2022-08-11T02:27:49;6.95;;;3.60;;
60372;SDS011;46216;52.220;5.134;2022-08-11T02:30:21;4.25;;;3.80;;
60372;SDS011;46216;52.220;5.134;2022-08-11T02:33:11;4.50;;;3.85;;
60372;SDS011;46216;52.220;5.134;2022-08-11T02:35:57;5.53;;;4.07;;
60372;SDS011;46216;52.220;5.134;2022-08-11T02:38:54;7.05;;;3.95;;
60372;SDS011;46216;52.220;5.134;2022-08-11T02:41:32;4.35;;;3.95;;
60372;SDS011;46216;52.220;5.134;2022-08-11T02:44:45;4.95;;;3.83;;
60372;SDS011;46216;52.220;5.134;2022-08-11T02:50:38;6.95;;;4.13;;
60372;SDS011;46216;52.220;5.134;2022-08-11T02:53:16;7.45;;;4.65;;
60372;SDS011;46216;52.220;5.134;2022-08-11T02:56:00;5.38;;;3.95;;
60372;SDS011;46216;52.220;5.134;2022-08-11T03:02:05;6.40;;;4.30;;
60372;SDS011;46216;52.220;5.134;2022-08-11T03:04:11;6.40;;;4.43;;
60372;SDS011;46216;52.220;5.134;2022-08-11T03:06:53;5.38;;;4.10;;
60372;SDS011;46216;52.220;5.134;2022-08-11T03:12:18;8.02;;;4.60;;
60372;SDS011;46216;52.220;5.134;2022-08-11T03:15:18;5.57;;;4.53;;
60372;SDS011;46216;52.220;5.134;2022-08-11T03:18:14;5.50;;;4.85;;
60372;SDS011;46216;52.220;5.134;2022-08-11T03:20:58;5.78;;;4.28;;
60372;SDS011;46216;52.220;5.134;2022-08-11T03:24:00;5.10;;;4.43;;
60372;SDS011;46216;52.220;5.134;2022-08-11T03:26:32;5.82;;;4.15;;
60372;SDS011;46216;52.220;5.134;2022-08-11T03:32:00;5.38;;;4.88;;
60372;SDS011;46216;52.220;5.134;2022-08-11T03:34:30;5.05;;;4.50;;
60372;SDS011;46216;52.220;5.134;2022-08-11T03:52:22;9.65;;;5.30;;
60372;SDS011;46216;52.220;5.134;2022-08-11T03:55:13;5.35;;;4.85;;
60372;SDS011;46216;52.220;5.134;2022-08-11T03:57:50;8.25;;;5.10;;
60372;SDS011;46216;52.220;5.134;2022-08-11T04:09:39;5.90;;;4.85;;
60372;SDS011;46216;52.220;5.134;2022-08-11T04:15:07;7.32;;;5.10;;
60372;SDS011;46216;52.220;5.134;2022-08-11T04:18:14;6.32;;;4.72;;
60372;SDS011;46216;52.220;5.134;2022-08-11T04:21:09;9.00;;;5.50;;
60372;SDS011;46216;52.220;5.134;2022-08-11T04:27:23;7.22;;;5.15;;
60372;SDS011;46216;52.220;5.134;2022-08-11T04:30:02;5.53;;;4.93;;
60372;SDS011;46216;52.220;5.134;2022-08-11T04:32:33;8.60;;;5.10;;
60372;SDS011;46216;52.220;5.134;2022-08-11T04:35:13;5.07;;;4.57;;
60372;SDS011;46216;52.220;5.134;2022-08-11T04:46:00;5.60;;;4.65;;
60372;SDS011;46216;52.220;5.134;2022-08-11T04:51:39;8.43;;;4.68;;
60372;SDS011;46216;52.220;5.134;2022-08-11T05:13:05;5.28;;;4.72;;
60372;SDS011;46216;52.220;5.134;2022-08-11T05:15:54;6.97;;;4.93;;
60372;SDS011;46216;52.220;5.134;2022-08-11T05:18:53;4.80;;;4.40;;
60372;SDS011;46216;52.220;5.134;2022-08-11T05:21:38;5.20;;;4.30;;
60372;SDS011;46216;52.220;5.134;2022-08-11T05:27:30;5.22;;;4.38;;
60372;SDS011;46216;52.220;5.134;2022-08-11T05:30:18;6.55;;;4.55;;
60372;SDS011;46216;52.220;5.134;2022-08-11T05:33:08;7.38;;;4.35;;
60372;SDS011;46216;52.220;5.134;2022-08-11T05:39:01;6.95;;;4.85;;
60372;SDS011;46216;52.220;5.134;2022-08-11T05:41:47;8.25;;;4.47;;
60372;SDS011;46216;52.220;5.134;2022-08-11T05:44:33;8.80;;;4.65;;
60372;SDS011;46216;52.220;5.134;2022-08-11T05:47:23;6.82;;;4.72;;
60372;SDS011;46216;52.220;5.134;2022-08-11T05:50:08;4.90;;;4.40;;
60372;SDS011;46216;52.220;5.134;2022-08-11T05:52:54;8.80;;;4.20;;
60372;SDS011;46216;52.220;5.134;2022-08-11T05:55:40;5.60;;;4.10;;
60372;SDS011;46216;52.220;5.134;2022-08-11T05:58:31;6.65;;;4.18;;
60372;SDS011;46216;52.220;5.134;2022-08-11T06:00:58;4.93;;;4.43;;
60372;SDS011;46216;52.220;5.134;2022-08-11T06:03:25;4.95;;;4.35;;
60372;SDS011;46216;52.220;5.134;2022-08-11T06:05:53;4.55;;;4.15;;
60372;SDS011;46216;52.220;5.134;2022-08-11T06:08:26;5.50;;;4.32;;
60372;SDS011;46216;52.220;5.134;2022-08-11T06:10:59;6.18;;;4.32;;
60372;SDS011;46216;52.220;5.134;2022-08-11T06:13:26;12.88;;;5.38;;
60372;SDS011;46216;52.220;5.134;2022-08-11T06:15:52;6.80;;;4.43;;
60372;SDS011;46216;52.220;5.134;2022-08-11T06:18:19;7.38;;;4.60;;
60372;SDS011;46216;52.220;5.134;2022-08-11T06:20:55;5.65;;;4.40;;
60372;SDS011;46216;52.220;5.134;2022-08-11T06:23:22;6.53;;;4.20;;
60372;SDS011;46216;52.220;5.134;2022-08-11T06:25:54;5.07;;;4.13;;
60372;SDS011;46216;52.220;5.134;2022-08-11T06:28:27;7.57;;;4.30;;
60372;SDS011;46216;52.220;5.134;2022-08-11T06:30:58;7.03;;;3.88;;
60372;SDS011;46216;52.220;5.134;2022-08-11T06:33:34;6.90;;;4.20;;
60372;SDS011;46216;52.220;5.134;2022-08-11T06:39:42;7.47;;;3.80;;
60372;SDS011;46216;52.220;5.134;2022-08-11T06:44:29;6.10;;;4.10;;
60372;SDS011;46216;52.220;5.134;2022-08-11T06:47:03;8.57;;;3.80;;
60372;SDS011;46216;52.220;5.134;2022-08-11T06:49:33;5.55;;;3.60;;
60372;SDS011;46216;52.220;5.134;2022-08-11T06:52:34;8.68;;;3.83;;
60372;SDS011;46216;52.220;5.134;2022-08-11T06:55:09;6.63;;;4.07;;
60372;SDS011;46216;52.220;5.134;2022-08-11T06:57:38;6.45;;;4.25;;
60372;SDS011;46216;52.220;5.134;2022-08-11T07:00:24;8.82;;;4.00;;
60372;SDS011;46216;52.220;5.134;2022-08-11T07:14:32;5.10;;;4.03;;
60372;SDS011;46216;52.220;5.134;2022-08-11T07:17:21;8.68;;;4.35;;
60372;SDS011;46216;52.220;5.134;2022-08-11T07:19:51;5.05;;;3.90;;
60372;SDS011;46216;52.220;5.134;2022-08-11T07:22:37;7.25;;;3.85;;
60372;SDS011;46216;52.220;5.134;2022-08-11T07:25:34;6.47;;;3.85;;
60372;SDS011;46216;52.220;5.134;2022-08-11T07:28:23;7.78;;;4.00;;
60372;SDS011;46216;52.220;5.134;2022-08-11T07:31:10;6.00;;;3.90;;
60372;SDS011;46216;52.220;5.134;2022-08-11T07:33:45;4.05;;;3.63;;
60372;SDS011;46216;52.220;5.134;2022-08-11T07:36:13;7.63;;;3.95;;
60372;SDS011;46216;52.220;5.134;2022-08-11T07:38:42;6.65;;;3.47;;
60372;SDS011;46216;52.220;5.134;2022-08-11T07:41:14;8.15;;;4.10;;
60372;SDS011;46216;52.220;5.134;2022-08-11T07:43:41;4.13;;;3.60;;
60372;SDS011;46216;52.220;5.134;2022-08-11T07:46:10;7.82;;;3.80;;
60372;SDS011;46216;52.220;5.134;2022-08-11T07:48:56;5.00;;;3.60;;
60372;SDS011;46216;52.220;5.134;2022-08-11T07:51:41;4.65;;;3.20;;
60372;SDS011;46216;52.220;5.134;2022-08-11T07:54:28;8.90;;;3.70;;
60372;SDS011;46216;52.220;5.134;2022-08-11T07:56:54;11.40;;;3.25;;
60372;SDS011;46216;52.220;5.134;2022-08-11T07:59:20;6.15;;;3.17;;
60372;SDS011;46216;52.220;5.134;2022-08-11T08:02:06;7.25;;;3.38;;
60372;SDS011;46216;52.220;5.134;2022-08-11T08:04:52;6.03;;;3.22;;
60372;SDS011;46216;52.220;5.134;2022-08-11T08:07:38;6.45;;;3.22;;
60372;SDS011;46216;52.220;5.134;2022-08-11T08:10:22;6.93;;;3.47;;
60372;SDS011;46216;52.220;5.134;2022-08-11T08:13:06;7.30;;;3.33;;
60372;SDS011;46216;52.220;5.134;2022-08-11T08:15:51;8.85;;;3.28;;
60372;SDS011;46216;52.220;5.134;2022-08-11T08:18:37;8.40;;;3.65;;
60372;SDS011;46216;52.220;5.134;2022-08-11T08:21:04;10.27;;;3.70;;
60372;SDS011;46216;52.220;5.134;2022-08-11T08:23:46;5.35;;;3.40;;
60372;SDS011;46216;52.220;5.134;2022-08-11T08:26:12;3.83;;;3.40;;
60372;SDS011;46216;52.220;5.134;2022-08-11T08:29:05;6.38;;;3.38;;
60372;SDS011;46216;52.220;5.134;2022-08-11T08:31:50;8.18;;;3.33;;
60372;SDS011;46216;52.220;5.134;2022-08-11T08:34:16;5.50;;;3.10;;
60372;SDS011;46216;52.220;5.134;2022-08-11T08:36:46;8.90;;;3.35;;
60372;SDS011;46216;52.220;5.134;2022-08-11T08:39:19;7.47;;;3.35;;
60372;SDS011;46216;52.220;5.134;2022-08-11T08:41:48;8.82;;;3.08;;
60372;SDS011;46216;52.220;5.134;2022-08-11T08:44:18;3.95;;;2.90;;
60372;SDS011;46216;52.220;5.134;2022-08-11T08:46:48;5.57;;;3.22;;
60372;SDS011;46216;52.220;5.134;2022-08-11T08:49:17;9.00;;;3.47;;
60372;SDS011;46216;52.220;5.134;2022-08-11T08:51:44;5.55;;;3.30;;
60372;SDS011;46216;52.220;5.134;2022-08-11T08:54:18;5.70;;;2.88;;
60372;SDS011;46216;52.220;5.134;2022-08-11T08:56:47;8.60;;;3.10;;
60372;SDS011;46216;52.220;5.134;2022-08-11T08:59:16;4.10;;;2.80;;
60372;SDS011;46216;52.220;5.134;2022-08-11T09:01:50;4.60;;;3.08;;
60372;SDS011;46216;52.220;5.134;2022-08-11T09:04:19;4.60;;;3.05;;
60372;SDS011;46216;52.220;5.134;2022-08-11T09:06:45;4.60;;;2.80;;
60372;SDS011;46216;52.220;5.134;2022-08-11T09:09:12;6.28;;;2.72;;
60372;SDS011;46216;52.220;5.134;2022-08-11T09:11:39;3.70;;;2.60;;
60372;SDS011;46216;52.220;5.134;2022-08-11T09:14:17;6.03;;;2.70;;
60372;SDS011;46216;52.220;5.134;2022-08-11T09:16:44;6.47;;;2.67;;
60372;SDS011;46216;52.220;5.134;2022-08-11T09:19:15;6.60;;;2.75;;
60372;SDS011;46216;52.220;5.134;2022-08-11T09:21:42;5.80;;;2.65;;
60372;SDS011;46216;52.220;5.134;2022-08-11T09:24:30;5.82;;;2.70;;
60372;SDS011;46216;52.220;5.134;2022-08-11T09:27:14;5.95;;;2.60;;
60372;SDS011;46216;52.220;5.134;2022-08-11T09:29:40;5.20;;;2.50;;
60372;SDS011;46216;52.220;5.134;2022-08-11T09:32:05;6.88;;;3.00;;
60372;SDS011;46216;52.220;5.134;2022-08-11T09:34:33;5.82;;;2.70;;
60372;SDS011;46216;52.220;5.134;2022-08-11T09:37:01;5.72;;;2.95;;
60372;SDS011;46216;52.220;5.134;2022-08-11T09:39:47;4.65;;;3.00;;
60372;SDS011;46216;52.220;5.134;2022-08-11T09:42:32;5.70;;;2.90;;
60372;SDS011;46216;52.220;5.134;2022-08-11T09:45:17;7.03;;;2.88;;
60372;SDS011;46216;52.220;5.134;2022-08-11T09:47:43;5.55;;;3.10;;
60372;SDS011;46216;52.220;5.134;2022-08-11T09:50:09;6.50;;;2.60;;
60372;SDS011;46216;52.220;5.134;2022-08-11T09:52:39;5.38;;;2.78;;
60372;SDS011;46216;52.220;5.134;2022-08-11T09:55:05;5.25;;;3.10;;
60372;SDS011;46216;52.220;5.134;2022-08-11T09:57:35;4.82;;;2.90;;
60372;SDS011;46216;52.220;5.134;2022-08-11T10:00:27;4.05;;;2.80;;
60372;SDS011;46216;52.220;5.134;2022-08-11T10:02:53;3.67;;;2.55;;
60372;SDS011;46216;52.220;5.134;2022-08-11T10:05:20;6.85;;;2.78;;
60372;SDS011;46216;52.220;5.134;2022-08-11T10:08:04;7.80;;;2.30;;
60372;SDS011;46216;52.220;5.134;2022-08-11T10:10:33;5.57;;;2.40;;
60372;SDS011;46216;52.220;5.134;2022-08-11T10:13:02;6.28;;;2.20;;
60372;SDS011;46216;52.220;5.134;2022-08-11T10:15:31;2.92;;;2.50;;
60372;SDS011;46216;52.220;5.134;2022-08-11T10:18:06;5.18;;;2.38;;
60372;SDS011;46216;52.220;5.134;2022-08-11T10:20:59;3.90;;;2.25;;
60372;SDS011;46216;52.220;5.134;2022-08-11T10:23:27;2.95;;;2.40;;
60372;SDS011;46216;52.220;5.134;2022-08-11T10:26:17;3.17;;;2.22;;
60372;SDS011;46216;52.220;5.134;2022-08-11T10:29:03;3.80;;;2.15;;
60372;SDS011;46216;52.220;5.134;2022-08-11T10:31:53;4.68;;;2.22;;
60372;SDS011;46216;52.220;5.134;2022-08-11T10:34:39;4.88;;;2.33;;
60372;SDS011;46216;52.220;5.134;2022-08-11T10:37:06;3.85;;;2.10;;
60372;SDS011;46216;52.220;5.134;2022-08-11T10:39:32;5.38;;;2.28;;
60372;SDS011;46216;52.220;5.134;2022-08-11T10:41:59;7.07;;;2.15;;
60372;SDS011;46216;52.220;5.134;2022-08-11T10:44:45;4.75;;;2.40;;
60372;SDS011;46216;52.220;5.134;2022-08-11T10:47:14;5.55;;;2.10;;
60372;SDS011;46216;52.220;5.134;2022-08-11T10:50:02;4.32;;;2.17;;
60372;SDS011;46216;52.220;5.134;2022-08-11T10:52:56;6.10;;;2.00;;
60372;SDS011;46216;52.220;5.134;2022-08-11T10:55:42;3.95;;;2.30;;
60372;SDS011;46216;52.220;5.134;2022-08-11T10:58:28;4.78;;;2.50;;
60372;SDS011;46216;52.220;5.134;2022-08-11T11:01:14;6.00;;;2.50;;
60372;SDS011;46216;52.220;5.134;2022-08-11T11:03:42;2.97;;;2.38;;
60372;SDS011;46216;52.220;5.134;2022-08-11T11:06:12;4.43;;;2.17;;
60372;SDS011;46216;52.220;5.134;2022-08-11T11:08:44;3.50;;;2.35;;
60372;SDS011;46216;52.220;5.134;2022-08-11T11:11:18;4.78;;;2.75;;
60372;SDS011;46216;52.220;5.134;2022-08-11T11:13:46;7.72;;;2.20;;
60372;SDS011;46216;52.220;5.134;2022-08-11T11:16:36;5.20;;;2.60;;
60372;SDS011;46216;52.220;5.134;2022-08-11T11:19:23;5.65;;;2.30;;
60372;SDS011;46216;52.220;5.134;2022-08-11T11:21:54;5.55;;;2.38;;
60372;SDS011;46216;52.220;5.134;2022-08-11T11:24:44;4.10;;;2.22;;
60372;SDS011;46216;52.220;5.134;2022-08-11T11:27:20;5.28;;;2.42;;
60372;SDS011;46216;52.220;5.134;2022-08-11T11:37:39;5.78;;;2.20;;
60372;SDS011;46216;52.220;5.134;2022-08-11T11:40:07;5.63;;;2.70;;
60372;SDS011;46216;52.220;5.134;2022-08-11T11:42:35;3.92;;;2.35;;
60372;SDS011;46216;52.220;5.134;2022-08-11T11:45:03;3.03;;;2.35;;
60372;SDS011;46216;52.220;5.134;2022-08-11T11:47:29;5.63;;;2.58;;
60372;SDS011;46216;52.220;5.134;2022-08-11T11:49:57;4.35;;;2.60;;
60372;SDS011;46216;52.220;5.134;2022-08-11T11:52:23;4.78;;;2.40;;
60372;SDS011;46216;52.220;5.134;2022-08-11T11:54:51;4.30;;;2.35;;
60372;SDS011;46216;52.220;5.134;2022-08-11T11:57:20;5.93;;;2.70;;
60372;SDS011;46216;52.220;5.134;2022-08-11T12:00:05;5.82;;;2.80;;
60372;SDS011;46216;52.220;5.134;2022-08-11T12:02:51;5.22;;;2.55;;
60372;SDS011;46216;52.220;5.134;2022-08-11T12:05:17;7.25;;;2.50;;
60372;SDS011;46216;52.220;5.134;2022-08-11T12:07:43;6.40;;;2.30;;
60372;SDS011;46216;52.220;5.134;2022-08-11T12:10:28;3.75;;;2.28;;
60372;SDS011;46216;52.220;5.134;2022-08-11T12:12:55;2.78;;;2.30;;
60372;SDS011;46216;52.220;5.134;2022-08-11T12:15:42;5.82;;;2.25;;
60372;SDS011;46216;52.220;5.134;2022-08-11T12:18:08;3.95;;;2.10;;
60372;SDS011;46216;52.220;5.134;2022-08-11T12:20:34;4.10;;;2.10;;
60372;SDS011;46216;52.220;5.134;2022-08-11T12:23:01;3.97;;;2.38;;
60372;SDS011;46216;52.220;5.134;2022-08-11T12:25:46;7.63;;;2.40;;
60372;SDS011;46216;52.220;5.134;2022-08-11T12:28:30;3.88;;;2.03;;
60372;SDS011;46216;52.220;5.134;2022-08-11T12:30:55;4.85;;;2.10;;
60372;SDS011;46216;52.220;5.134;2022-08-11T12:33:21;5.22;;;2.13;;
60372;SDS011;46216;52.220;5.134;2022-08-11T12:35:48;3.38;;;2.20;;
60372;SDS011;46216;52.220;5.134;2022-08-11T12:38:19;3.03;;;2.08;;
60372;SDS011;46216;52.220;5.134;2022-08-11T12:40:47;3.92;;;2.30;;
60372;SDS011;46216;52.220;5.134;2022-08-11T12:43:32;4.03;;;1.75;;
60372;SDS011;46216;52.220;5.134;2022-08-11T12:46:19;2.92;;;1.63;;
60372;SDS011;46216;52.220;5.134;2022-08-11T12:48:49;3.08;;;1.67;;
60372;SDS011;46216;52.220;5.134;2022-08-11T12:51:40;4.20;;;1.80;;
60372;SDS011;46216;52.220;5.134;2022-08-11T12:54:32;4.10;;;1.90;;
60372;SDS011;46216;52.220;5.134;2022-08-11T12:57:19;4.90;;;1.90;;
60372;SDS011;46216;52.220;5.134;2022-08-11T13:00:09;2.40;;;1.83;;
60372;SDS011;46216;52.220;5.134;2022-08-11T13:02:53;3.83;;;1.90;;
60372;SDS011;46216;52.220;5.134;2022-08-11T13:05:38;3.22;;;1.83;;
60372;SDS011;46216;52.220;5.134;2022-08-11T13:08:05;4.43;;;1.88;;
60372;SDS011;46216;52.220;5.134;2022-08-11T13:10:31;4.00;;;1.80;;
60372;SDS011;46216;52.220;5.134;2022-08-11T13:13:16;4.35;;;1.92;;
60372;SDS011;46216;52.220;5.134;2022-08-11T13:15:45;3.22;;;1.95;;
60372;SDS011;46216;52.220;5.134;2022-08-11T13:18:14;6.03;;;2.20;;
60372;SDS011;46216;52.220;5.134;2022-08-11T13:20:41;2.85;;;1.90;;
60372;SDS011;46216;52.220;5.134;2022-08-11T13:23:09;4.05;;;2.00;;
60372;SDS011;46216;52.220;5.134;2022-08-11T13:25:37;4.47;;;1.77;;
60372;SDS011;46216;52.220;5.134;2022-08-11T13:28:04;5.50;;;2.00;;
60372;SDS011;46216;52.220;5.134;2022-08-11T13:30:30;3.25;;;1.75;;
60372;SDS011;46216;52.220;5.134;2022-08-11T13:33:15;4.50;;;1.90;;
60372;SDS011;46216;52.220;5.134;2022-08-11T13:35:42;2.40;;;1.70;;
60372;SDS011;46216;52.220;5.134;2022-08-11T13:38:10;3.72;;;1.80;;
60372;SDS011;46216;52.220;5.134;2022-08-11T13:40:37;4.90;;;1.70;;
60372;SDS011;46216;52.220;5.134;2022-08-11T13:43:04;3.67;;;1.98;;
60372;SDS011;46216;52.220;5.134;2022-08-11T13:45:30;4.38;;;1.95;;
60372;SDS011;46216;52.220;5.134;2022-08-11T13:47:57;4.45;;;2.00;;
60372;SDS011;46216;52.220;5.134;2022-08-11T13:50:24;5.20;;;1.80;;
60372;SDS011;46216;52.220;5.134;2022-08-11T13:53:10;2.75;;;1.80;;
60372;SDS011;46216;52.220;5.134;2022-08-11T13:55:38;4.28;;;1.83;;
60372;SDS011;46216;52.220;5.134;2022-08-11T13:58:04;2.90;;;1.77;;
60372;SDS011;46216;52.220;5.134;2022-08-11T14:00:30;5.13;;;1.80;;
60372;SDS011;46216;52.220;5.134;2022-08-11T14:02:55;4.88;;;1.70;;
60372;SDS011;46216;52.220;5.134;2022-08-11T14:05:24;3.78;;;2.00;;
60372;SDS011;46216;52.220;5.134;2022-08-11T14:07:54;4.13;;;1.80;;
60372;SDS011;46216;52.220;5.134;2022-08-11T14:10:27;7.07;;;1.98;;
60372;SDS011;46216;52.220;5.134;2022-08-11T14:13:13;4.72;;;1.73;;
60372;SDS011;46216;52.220;5.134;2022-08-11T14:16:02;4.95;;;2.00;;
60372;SDS011;46216;52.220;5.134;2022-08-11T14:18:31;6.43;;;1.70;;
60372;SDS011;46216;52.220;5.134;2022-08-11T14:20:59;6.07;;;2.00;;
60372;SDS011;46216;52.220;5.134;2022-08-11T14:23:49;4.88;;;2.00;;
60372;SDS011;46216;52.220;5.134;2022-08-11T14:26:19;3.33;;;2.20;;
60372;SDS011;46216;52.220;5.134;2022-08-11T14:28:51;3.17;;;2.03;;
60372;SDS011;46216;52.220;5.134;2022-08-11T14:31:20;4.05;;;1.80;;
60372;SDS011;46216;52.220;5.134;2022-08-11T14:33:49;3.35;;;1.70;;
60372;SDS011;46216;52.220;5.134;2022-08-11T14:36:17;3.50;;;1.85;;
60372;SDS011;46216;52.220;5.134;2022-08-11T14:38:45;4.43;;;1.67;;
60372;SDS011;46216;52.220;5.134;2022-08-11T14:41:11;7.32;;;1.80;;
60372;SDS011;46216;52.220;5.134;2022-08-11T14:43:55;5.40;;;1.80;;
60372;SDS011;46216;52.220;5.134;2022-08-11T14:46:42;4.93;;;2.30;;
60372;SDS011;46216;52.220;5.134;2022-08-11T14:49:27;4.78;;;1.83;;
60372;SDS011;46216;52.220;5.134;2022-08-11T14:51:53;3.75;;;1.85;;
60372;SDS011;46216;52.220;5.134;2022-08-11T14:54:25;3.25;;;1.73;;
60372;SDS011;46216;52.220;5.134;2022-08-11T14:57:12;5.93;;;1.80;;
60372;SDS011;46216;52.220;5.134;2022-08-11T14:59:38;2.67;;;1.85;;
60372;SDS011;46216;52.220;5.134;2022-08-11T15:02:04;4.13;;;1.88;;
60372;SDS011;46216;52.220;5.134;2022-08-11T15:04:49;6.22;;;1.80;;
60372;SDS011;46216;52.220;5.134;2022-08-11T15:07:15;3.92;;;1.60;;
60372;SDS011;46216;52.220;5.134;2022-08-11T15:09:41;4.90;;;1.58;;
60372;SDS011;46216;52.220;5.134;2022-08-11T15:12:10;3.92;;;1.70;;
60372;SDS011;46216;52.220;5.134;2022-08-11T15:14:43;2.38;;;1.60;;
60372;SDS011;46216;52.220;5.134;2022-08-11T15:17:28;2.28;;;1.48;;
60372;SDS011;46216;52.220;5.134;2022-08-11T15:19:57;2.63;;;1.60;;
60372;SDS011;46216;52.220;5.134;2022-08-11T15:22:44;4.50;;;1.80;;
60372;SDS011;46216;52.220;5.134;2022-08-11T15:25:28;6.40;;;2.00;;
60372;SDS011;46216;52.220;5.134;2022-08-11T15:27:54;1.95;;;1.60;;
60372;SDS011;46216;52.220;5.134;2022-08-11T15:30:41;3.80;;;2.00;;
60372;SDS011;46216;52.220;5.134;2022-08-11T15:33:27;3.90;;;1.70;;
60372;SDS011;46216;52.220;5.134;2022-08-11T15:36:13;2.08;;;1.70;;
60372;SDS011;46216;52.220;5.134;2022-08-11T15:39:02;3.83;;;1.80;;
60372;SDS011;46216;52.220;5.134;2022-08-11T15:41:40;3.70;;;1.73;;
60372;SDS011;46216;52.220;5.134;2022-08-11T15:44:56;3.95;;;2.00;;
60372;SDS011;46216;52.220;5.134;2022-08-11T15:47:54;2.22;;;1.70;;
60372;SDS011;46216;52.220;5.134;2022-08-11T15:50:22;3.65;;;1.70;;
60372;SDS011;46216;52.220;5.134;2022-08-11T15:52:55;7.13;;;2.13;;
60372;SDS011;46216;52.220;5.134;2022-08-11T15:55:24;4.10;;;2.13;;
60372;SDS011;46216;52.220;5.134;2022-08-11T15:57:54;2.42;;;1.77;;
60372;SDS011;46216;52.220;5.134;2022-08-11T16:00:40;3.00;;;1.83;;
60372;SDS011;46216;52.220;5.134;2022-08-11T16:03:28;6.63;;;1.90;;
60372;SDS011;46216;52.220;5.134;2022-08-11T16:06:15;3.58;;;1.83;;
60372;SDS011;46216;52.220;5.134;2022-08-11T16:08:42;3.70;;;1.88;;
60372;SDS011;46216;52.220;5.134;2022-08-11T16:11:08;2.72;;;1.75;;
60372;SDS011;46216;52.220;5.134;2022-08-11T16:13:38;6.03;;;1.90;;
60372;SDS011;46216;52.220;5.134;2022-08-11T16:16:04;2.03;;;1.73;;
60372;SDS011;46216;52.220;5.134;2022-08-11T16:18:42;2.20;;;1.70;;
60372;SDS011;46216;52.220;5.134;2022-08-11T16:21:25;3.92;;;1.80;;
60372;SDS011;46216;52.220;5.134;2022-08-11T16:23:55;2.78;;;1.67;;
60372;SDS011;46216;52.220;5.134;2022-08-11T16:26:23;5.18;;;1.80;;
60372;SDS011;46216;52.220;5.134;2022-08-11T16:28:53;3.58;;;1.98;;
60372;SDS011;46216;52.220;5.134;2022-08-11T16:31:22;4.05;;;1.65;;
60372;SDS011;46216;52.220;5.134;2022-08-11T16:33:49;5.05;;;1.75;;
60372;SDS011;46216;52.220;5.134;2022-08-11T16:36:16;4.43;;;2.10;;
60372;SDS011;46216;52.220;5.134;2022-08-11T16:39:03;6.15;;;2.00;;
60372;SDS011;46216;52.220;5.134;2022-08-11T16:41:31;5.43;;;1.88;;
60372;SDS011;46216;52.220;5.134;2022-08-11T16:44:17;2.75;;;1.80;;
60372;SDS011;46216;52.220;5.134;2022-08-11T16:47:02;5.68;;;1.90;;
60372;SDS011;46216;52.220;5.134;2022-08-11T16:51:58;5.57;;;1.90;;
60372;SDS011;46216;52.220;5.134;2022-08-11T16:54:35;4.43;;;1.40;;
60372;SDS011;46216;52.220;5.134;2022-08-11T16:57:04;3.70;;;1.80;;
60372;SDS011;46216;52.220;5.134;2022-08-11T16:59:52;3.60;;;1.70;;
60372;SDS011;46216;52.220;5.134;2022-08-11T17:02:20;5.30;;;1.70;;
60372;SDS011;46216;52.220;5.134;2022-08-11T17:05:07;3.25;;;1.75;;
60372;SDS011;46216;52.220;5.134;2022-08-11T17:07:55;5.20;;;1.70;;
60372;SDS011;46216;52.220;5.134;2022-08-11T17:10:56;3.58;;;1.67;;
60372;SDS011;46216;52.220;5.134;2022-08-11T17:13:56;5.60;;;1.70;;
60372;SDS011;46216;52.220;5.134;2022-08-11T17:16:31;3.63;;;1.70;;
60372;SDS011;46216;52.220;5.134;2022-08-11T17:19:00;5.43;;;1.92;;
60372;SDS011;46216;52.220;5.134;2022-08-11T17:21:32;5.18;;;1.65;;
60372;SDS011;46216;52.220;5.134;2022-08-11T17:24:05;5.45;;;1.83;;
60372;SDS011;46216;52.220;5.134;2022-08-11T17:26:34;5.00;;;1.60;;
60372;SDS011;46216;52.220;5.134;2022-08-11T17:29:20;4.53;;;1.77;;
60372;SDS011;46216;52.220;5.134;2022-08-11T17:31:49;4.53;;;2.03;;
60372;SDS011;46216;52.220;5.134;2022-08-11T17:34:35;2.30;;;1.50;;
60372;SDS011;46216;52.220;5.134;2022-08-11T17:37:20;2.88;;;1.80;;
60372;SDS011;46216;52.220;5.134;2022-08-11T17:39:47;5.68;;;1.77;;
60372;SDS011;46216;52.220;5.134;2022-08-11T17:42:14;4.65;;;2.10;;
60372;SDS011;46216;52.220;5.134;2022-08-11T17:44:59;4.38;;;1.88;;
60372;SDS011;46216;52.220;5.134;2022-08-11T17:47:45;6.05;;;1.88;;
60372;SDS011;46216;52.220;5.134;2022-08-11T17:50:30;4.90;;;1.75;;
60372;SDS011;46216;52.220;5.134;2022-08-11T17:52:58;3.00;;;1.80;;
60372;SDS011;46216;52.220;5.134;2022-08-11T17:55:43;3.53;;;1.70;;
60372;SDS011;46216;52.220;5.134;2022-08-11T17:58:29;3.33;;;1.85;;
60372;SDS011;46216;52.220;5.134;2022-08-11T18:01:14;2.90;;;1.80;;
60372;SDS011;46216;52.220;5.134;2022-08-11T18:03:43;5.03;;;2.00;;
60372;SDS011;46216;52.220;5.134;2022-08-11T18:06:10;3.88;;;1.80;;
60372;SDS011;46216;52.220;5.134;2022-08-11T18:08:39;5.10;;;2.45;;
60372;SDS011;46216;52.220;5.134;2022-08-11T18:11:26;5.10;;;2.03;;
60372;SDS011;46216;52.220;5.134;2022-08-11T18:14:12;5.20;;;2.35;;
60372;SDS011;46216;52.220;5.134;2022-08-11T18:16:58;4.82;;;1.80;;
60372;SDS011;46216;52.220;5.134;2022-08-11T18:19:42;4.75;;;1.90;;
60372;SDS011;46216;52.220;5.134;2022-08-11T18:22:29;4.50;;;1.90;;
60372;SDS011;46216;52.220;5.134;2022-08-11T18:25:16;4.97;;;1.85;;
60372;SDS011;46216;52.220;5.134;2022-08-11T18:28:04;3.47;;;2.00;;
60372;SDS011;46216;52.220;5.134;2022-08-11T18:30:50;3.75;;;1.90;;
60372;SDS011;46216;52.220;5.134;2022-08-11T18:33:44;4.65;;;2.10;;
60372;SDS011;46216;52.220;5.134;2022-08-11T18:36:40;5.35;;;1.90;;
60372;SDS011;46216;52.220;5.134;2022-08-11T18:39:41;5.22;;;1.90;;
60372;SDS011;46216;52.220;5.134;2022-08-11T18:42:28;2.78;;;1.80;;
60372;SDS011;46216;52.220;5.134;2022-08-11T18:45:15;4.25;;;2.30;;
60372;SDS011;46216;52.220;5.134;2022-08-11T18:48:04;6.70;;;2.17;;
60372;SDS011;46216;52.220;5.134;2022-08-11T18:50:51;5.63;;;2.20;;
60372;SDS011;46216;52.220;5.134;2022-08-11T18:53:38;5.00;;;2.10;;